sensor_id;sensor_type;location;lat;lon;timestamp;pressure;altitude;pressure_sealevel;temperature;humidity
28606;BME280;46498;49.968;7.754;2023-07-20T00:02:18;-18796.00;;;16.29;74.78
28606;BME280;46498;49.968;7.754;2023-07-20T00:07:19;-18795.00;;;16.24;75.21
28606;BME280;46498;49.968;7.754;2023-07-20T00:12:20;-18792.00;;;16.16;75.97
28606;BME280;46498;49.968;7.754;2023-07-20T00:17:21;-18789.00;;;16.05;76.70
28606;BME280;46498;49.968;7.754;2023-07-20T00:22:22;-18789.00;;;16.05;76.78
28606;BME280;46498;49.968;7.754;2023-07-20T00:27:23;-18793.00;;;16.17;75.95
28606;BME280;46498;49.968;7.754;2023-07-20T00:32:24;-18789.00;;;16.05;76.90
28606;BME280;46498;49.968;7.754;2023-07-20T00:37:25;-18787.00;;;15.99;77.13
28606;BME280;46498;49.968;7.754;2023-07-20T00:42:26;-18785.00;;;15.94;77.56
28606;BME280;46498;49.968;7.754;2023-07-20T00:47:27;-18786.00;;;15.96;77.62
28606;BME280;46498;49.968;7.754;2023-07-20T00:52:28;-18784.00;;;15.89;78.10
28606;BME280;46498;49.968;7.754;2023-07-20T00:57:29;-18780.00;;;15.78;79.29
28606;BME280;46498;49.968;7.754;2023-07-20T01:02:31;-18779.00;;;15.74;80.09
28606;BME280;46498;49.968;7.754;2023-07-20T01:07:37;-18776.00;;;15.65;81.79
28606;BME280;46498;49.968;7.754;2023-07-20T01:12:46;-18774.00;;;15.57;82.88
28606;BME280;46498;49.968;7.754;2023-07-20T01:17:47;-18773.00;;;15.54;83.60
28606;BME280;46498;49.968;7.754;2023-07-20T01:23:19;-18775.00;;;15.62;83.49
28606;BME280;46498;49.968;7.754;2023-07-20T01:28:48;-18773.00;;;15.56;83.84
28606;BME280;46498;49.968;7.754;2023-07-20T01:33:55;-18775.00;;;15.60;83.92
28606;BME280;46498;49.968;7.754;2023-07-20T01:38:56;-18775.00;;;15.61;83.69
28606;BME280;46498;49.968;7.754;2023-07-20T01:43:58;-18774.00;;;15.58;84.33
28606;BME280;46498;49.968;7.754;2023-07-20T01:49:00;-18771.00;;;15.47;85.17
28606;BME280;46498;49.968;7.754;2023-07-20T01:54:01;-18771.00;;;15.47;85.60
28606;BME280;46498;49.968;7.754;2023-07-20T01:59:02;-18772.00;;;15.52;85.42
28606;BME280;46498;49.968;7.754;2023-07-20T02:04:03;-18768.00;;;15.38;86.50
28606;BME280;46498;49.968;7.754;2023-07-20T02:09:04;-18768.00;;;15.41;86.18
28606;BME280;46498;49.968;7.754;2023-07-20T02:14:05;-18766.00;;;15.33;86.79
28606;BME280;46498;49.968;7.754;2023-07-20T02:19:06;-18765.00;;;15.30;87.16
28606;BME280;46498;49.968;7.754;2023-07-20T02:24:07;-18764.00;;;15.25;87.54
28606;BME280;46498;49.968;7.754;2023-07-20T02:29:08;-18760.00;;;15.14;88.57
28606;BME280;46498;49.968;7.754;2023-07-20T02:34:12;-18759.00;;;15.10;89.01
28606;BME280;46498;49.968;7.754;2023-07-20T02:39:14;-18759.00;;;15.12;88.72
28606;BME280;46498;49.968;7.754;2023-07-20T02:44:15;-18759.00;;;15.12;88.55
28606;BME280;46498;49.968;7.754;2023-07-20T02:49:15;-18759.00;;;15.10;88.88
28606;BME280;46498;49.968;7.754;2023-07-20T02:54:17;-18755.00;;;14.99;89.72
28606;BME280;46498;49.968;7.754;2023-07-20T02:59:18;-18755.00;;;15.00;89.31
28606;BME280;46498;49.968;7.754;2023-07-20T03:04:19;-18755.00;;;14.97;89.68
28606;BME280;46498;49.968;7.754;2023-07-20T03:09:20;-18755.00;;;14.97;89.16
28606;BME280;46498;49.968;7.754;2023-07-20T03:14:22;-18757.00;;;15.04;88.47
28606;BME280;46498;49.968;7.754;2023-07-20T03:19:24;-18746.00;;;14.71;90.47
28606;BME280;46498;49.968;7.754;2023-07-20T03:24:25;-18739.00;;;14.47;93.09
28606;BME280;46498;49.968;7.754;2023-07-20T03:29:26;-18734.00;;;14.32;93.58
28606;BME280;46498;49.968;7.754;2023-07-20T03:34:27;-18734.00;;;14.31;93.38
28606;BME280;46498;49.968;7.754;2023-07-20T03:39:28;-18735.00;;;14.35;93.76
28606;BME280;46498;49.968;7.754;2023-07-20T03:44:29;-18734.00;;;14.33;93.62
28606;BME280;46498;49.968;7.754;2023-07-20T03:49:31;-18731.00;;;14.23;94.75
28606;BME280;46498;49.968;7.754;2023-07-20T03:54:31;-18730.00;;;14.21;95.04
28606;BME280;46498;49.968;7.754;2023-07-20T03:59:32;-18731.00;;;14.24;95.72
28606;BME280;46498;49.968;7.754;2023-07-20T04:04:34;-18735.00;;;14.36;95.29
28606;BME280;46498;49.968;7.754;2023-07-20T04:09:35;-18737.00;;;14.42;95.41
28606;BME280;46498;49.968;7.754;2023-07-20T04:14:36;-18735.00;;;14.35;94.42
28606;BME280;46498;49.968;7.754;2023-07-20T04:19:37;-18730.00;;;14.19;95.95
28606;BME280;46498;49.968;7.754;2023-07-20T04:24:38;-18730.00;;;14.20;95.63
28606;BME280;46498;49.968;7.754;2023-07-20T04:29:39;-18733.00;;;14.30;95.77
28606;BME280;46498;49.968;7.754;2023-07-20T04:34:40;-18735.00;;;14.36;95.15
28606;BME280;46498;49.968;7.754;2023-07-20T04:39:41;-18742.00;;;14.58;94.88
28606;BME280;46498;49.968;7.754;2023-07-20T04:44:45;-18747.00;;;14.75;94.73
28606;BME280;46498;49.968;7.754;2023-07-20T04:49:46;-18753.00;;;14.93;93.94
28606;BME280;46498;49.968;7.754;2023-07-20T04:54:46;-18758.00;;;15.09;93.29
28606;BME280;46498;49.968;7.754;2023-07-20T04:59:48;-18759.00;;;15.10;93.27
28606;BME280;46498;49.968;7.754;2023-07-20T05:04:49;-18761.00;;;15.18;92.73
28606;BME280;46498;49.968;7.754;2023-07-20T05:09:50;-18762.00;;;15.19;92.60
28606;BME280;46498;49.968;7.754;2023-07-20T05:14:51;-18763.00;;;15.24;92.45
28606;BME280;46498;49.968;7.754;2023-07-20T05:19:52;-18769.00;;;15.42;91.93
28606;BME280;46498;49.968;7.754;2023-07-20T05:24:53;-18774.00;;;15.57;90.99
28606;BME280;46498;49.968;7.754;2023-07-20T05:29:54;-18776.00;;;15.65;89.43
28606;BME280;46498;49.968;7.754;2023-07-20T05:34:55;-18782.00;;;15.82;89.99
28606;BME280;46498;49.968;7.754;2023-07-20T05:39:57;-18791.00;;;16.10;87.60
28606;BME280;46498;49.968;7.754;2023-07-20T05:44:58;-18792.00;;;16.13;87.28
28606;BME280;46498;49.968;7.754;2023-07-20T05:49:59;-18796.00;;;16.27;87.13
28606;BME280;46498;49.968;7.754;2023-07-20T05:55:00;-18804.00;;;16.51;86.12
28606;BME280;46498;49.968;7.754;2023-07-20T06:00:01;-18812.00;;;16.76;84.91
28606;BME280;46498;49.968;7.754;2023-07-20T06:05:12;-18818.00;;;16.96;83.67
28606;BME280;46498;49.968;7.754;2023-07-20T06:10:13;-18822.00;;;17.07;83.01
28606;BME280;46498;49.968;7.754;2023-07-20T06:15:25;-18830.00;;;17.33;81.75
28606;BME280;46498;49.968;7.754;2023-07-20T06:20:27;-18836.00;;;17.52;80.74
28606;BME280;46498;49.968;7.754;2023-07-20T06:25:28;-18845.00;;;17.82;79.24
28606;BME280;46498;49.968;7.754;2023-07-20T06:30:29;-18861.00;;;18.31;76.54
28606;BME280;46498;49.968;7.754;2023-07-20T06:35:30;-18869.00;;;18.55;74.01
28606;BME280;46498;49.968;7.754;2023-07-20T06:40:31;-18861.00;;;18.30;74.62
28606;BME280;46498;49.968;7.754;2023-07-20T06:45:33;-18859.00;;;18.24;74.56
28606;BME280;46498;49.968;7.754;2023-07-20T06:50:35;-18856.00;;;18.17;74.80
28606;BME280;46498;49.968;7.754;2023-07-20T06:55:36;-18861.00;;;18.33;75.09
28606;BME280;46498;49.968;7.754;2023-07-20T07:00:43;-18873.00;;;18.69;71.56
28606;BME280;46498;49.968;7.754;2023-07-20T07:05:44;-18888.00;;;19.15;69.71
28606;BME280;46498;49.968;7.754;2023-07-20T07:10:52;-18894.00;;;19.35;66.95
28606;BME280;46498;49.968;7.754;2023-07-20T07:15:53;-18898.00;;;19.49;66.56
28606;BME280;46498;49.968;7.754;2023-07-20T07:20:54;-18886.00;;;19.12;67.63
28606;BME280;46498;49.968;7.754;2023-07-20T07:25:55;-18895.00;;;19.39;66.60
28606;BME280;46498;49.968;7.754;2023-07-20T07:30:56;-18894.00;;;19.37;66.33
28606;BME280;46498;49.968;7.754;2023-07-20T07:35:57;-18901.00;;;19.58;65.59
28606;BME280;46498;49.968;7.754;2023-07-20T07:41:02;-18910.00;;;19.86;63.12
28606;BME280;46498;49.968;7.754;2023-07-20T07:46:03;-18900.00;;;19.56;65.03
28606;BME280;46498;49.968;7.754;2023-07-20T07:51:04;-18904.00;;;19.68;63.60
28606;BME280;46498;49.968;7.754;2023-07-20T07:56:07;-18888.00;;;19.18;66.61
28606;BME280;46498;49.968;7.754;2023-07-20T08:01:08;-18891.00;;;19.26;67.21
28606;BME280;46498;49.968;7.754;2023-07-20T08:06:09;-18887.00;;;19.14;67.34
28606;BME280;46498;49.968;7.754;2023-07-20T08:11:11;-18876.00;;;18.79;67.56
28606;BME280;46498;49.968;7.754;2023-07-20T08:16:14;-18890.00;;;19.22;66.34
28606;BME280;46498;49.968;7.754;2023-07-20T08:21:15;-18908.00;;;19.80;63.74
28606;BME280;46498;49.968;7.754;2023-07-20T08:26:16;-18916.00;;;20.06;62.18
28606;BME280;46498;49.968;7.754;2023-07-20T08:31:17;-18919.00;;;20.13;61.13
28606;BME280;46498;49.968;7.754;2023-07-20T08:36:18;-18905.00;;;19.71;60.80
28606;BME280;46498;49.968;7.754;2023-07-20T08:41:19;-18896.00;;;19.41;61.24
28606;BME280;46498;49.968;7.754;2023-07-20T08:46:22;-18901.00;;;19.59;59.75
28606;BME280;46498;49.968;7.754;2023-07-20T08:51:25;-18916.00;;;20.05;59.21
28606;BME280;46498;49.968;7.754;2023-07-20T08:56:26;-18904.00;;;19.68;60.87
28606;BME280;46498;49.968;7.754;2023-07-20T09:01:28;-18916.00;;;20.03;60.42
28606;BME280;46498;49.968;7.754;2023-07-20T09:06:31;-18913.00;;;19.97;58.06
28606;BME280;46498;49.968;7.754;2023-07-20T09:11:32;-18924.00;;;20.29;55.95
28606;BME280;46498;49.968;7.754;2023-07-20T09:17:13;-18932.00;;;20.54;55.66
28606;BME280;46498;49.968;7.754;2023-07-20T09:22:14;-18918.00;;;20.11;57.15
28606;BME280;46498;49.968;7.754;2023-07-20T09:27:16;-18925.00;;;20.34;57.23
28606;BME280;46498;49.968;7.754;2023-07-20T09:32:20;-18922.00;;;20.24;56.51
28606;BME280;46498;49.968;7.754;2023-07-20T09:37:26;-18913.00;;;19.95;58.39
28606;BME280;46498;49.968;7.754;2023-07-20T09:42:28;-18905.00;;;19.71;59.67
28606;BME280;46498;49.968;7.754;2023-07-20T09:47:35;-18904.00;;;19.67;59.86
28606;BME280;46498;49.968;7.754;2023-07-20T09:52:39;-18929.00;;;20.47;57.68
28606;BME280;46498;49.968;7.754;2023-07-20T09:57:50;-18926.00;;;20.35;55.96
28606;BME280;46498;49.968;7.754;2023-07-20T10:02:55;-18925.00;;;20.33;55.15
28606;BME280;46498;49.968;7.754;2023-07-20T10:07:57;-18930.00;;;20.50;52.57
28606;BME280;46498;49.968;7.754;2023-07-20T10:13:01;-18932.00;;;20.57;51.54
28606;BME280;46498;49.968;7.754;2023-07-20T10:18:14;-18951.00;;;21.16;50.66
28606;BME280;46498;49.968;7.754;2023-07-20T10:23:17;-18984.00;;;22.18;47.33
28606;BME280;46498;49.968;7.754;2023-07-20T10:28:18;-18960.00;;;21.42;47.36
28606;BME280;46498;49.968;7.754;2023-07-20T10:33:19;-18966.00;;;21.61;45.78
28606;BME280;46498;49.968;7.754;2023-07-20T10:38:56;-18995.00;;;22.53;44.88
28606;BME280;46498;49.968;7.754;2023-07-20T10:44:06;-19006.00;;;22.89;45.09
28606;BME280;46498;49.968;7.754;2023-07-20T10:49:09;-19026.00;;;23.51;42.97
28606;BME280;46498;49.968;7.754;2023-07-20T10:54:46;-19038.00;;;23.90;40.08
28606;BME280;46498;49.968;7.754;2023-07-20T10:59:48;-19042.00;;;24.03;39.55
28606;BME280;46498;49.968;7.754;2023-07-20T11:04:50;-19039.00;;;23.92;39.59
28606;BME280;46498;49.968;7.754;2023-07-20T11:09:51;-19060.00;;;24.59;39.67
28606;BME280;46498;49.968;7.754;2023-07-20T11:14:57;-19049.00;;;24.25;39.63
28606;BME280;46498;49.968;7.754;2023-07-20T11:20:00;-19053.00;;;24.35;40.26
28606;BME280;46498;49.968;7.754;2023-07-20T11:25:05;-19064.00;;;24.72;38.77
28606;BME280;46498;49.968;7.754;2023-07-20T11:30:15;-19036.00;;;23.84;38.56
28606;BME280;46498;49.968;7.754;2023-07-20T11:35:16;-19036.00;;;23.82;37.77
28606;BME280;46498;49.968;7.754;2023-07-20T11:40:17;-19008.00;;;22.96;38.64
28606;BME280;46498;49.968;7.754;2023-07-20T11:45:19;-18996.00;;;22.58;37.80
28606;BME280;46498;49.968;7.754;2023-07-20T11:50:20;-19008.00;;;22.94;37.86
28606;BME280;46498;49.968;7.754;2023-07-20T11:55:21;-19004.00;;;22.81;38.21
28606;BME280;46498;49.968;7.754;2023-07-20T12:00:24;-19023.00;;;23.41;35.44
28606;BME280;46498;49.968;7.754;2023-07-20T12:05:28;-19042.00;;;24.02;33.50
28606;BME280;46498;49.968;7.754;2023-07-20T12:10:29;-19071.00;;;24.93;34.44
28606;BME280;46498;49.968;7.754;2023-07-20T12:15:30;-19078.00;;;25.15;33.84
28606;BME280;46498;49.968;7.754;2023-07-20T12:20:34;-19060.00;;;24.58;34.45
28606;BME280;46498;49.968;7.754;2023-07-20T12:25:45;-19069.00;;;24.86;33.39
28606;BME280;46498;49.968;7.754;2023-07-20T12:30:47;-19063.00;;;24.69;33.64
28606;BME280;46498;49.968;7.754;2023-07-20T12:35:56;-19057.00;;;24.49;34.09
28606;BME280;46498;49.968;7.754;2023-07-20T12:41:03;-19074.00;;;25.03;32.91
28606;BME280;46498;49.968;7.754;2023-07-20T12:46:04;-19078.00;;;25.15;32.49
28606;BME280;46498;49.968;7.754;2023-07-20T12:51:05;-19078.00;;;25.16;31.94
28606;BME280;46498;49.968;7.754;2023-07-20T12:56:06;-19080.00;;;25.23;31.18
28606;BME280;46498;49.968;7.754;2023-07-20T13:01:10;-19094.00;;;25.66;29.91
28606;BME280;46498;49.968;7.754;2023-07-20T13:06:11;-19102.00;;;25.91;29.22
28606;BME280;46498;49.968;7.754;2023-07-20T13:11:15;-19095.00;;;25.70;27.89
28606;BME280;46498;49.968;7.754;2023-07-20T13:16:16;-19111.00;;;26.19;27.93
28606;BME280;46498;49.968;7.754;2023-07-20T13:21:17;-19123.00;;;26.58;28.53
28606;BME280;46498;49.968;7.754;2023-07-20T13:26:23;-19100.00;;;25.84;28.83
28606;BME280;46498;49.968;7.754;2023-07-20T13:31:25;-19090.00;;;25.55;32.39
28606;BME280;46498;49.968;7.754;2023-07-20T13:36:26;-19043.00;;;24.04;35.54
28606;BME280;46498;49.968;7.754;2023-07-20T13:41:30;-19027.00;;;23.55;37.32
28606;BME280;46498;49.968;7.754;2023-07-20T13:46:33;-19034.00;;;23.77;37.03
28606;BME280;46498;49.968;7.754;2023-07-20T13:51:37;-19025.00;;;23.50;37.40
28606;BME280;46498;49.968;7.754;2023-07-20T13:56:39;-19016.00;;;23.21;38.44
28606;BME280;46498;49.968;7.754;2023-07-20T14:01:40;-19001.00;;;22.73;39.22
28606;BME280;46498;49.968;7.754;2023-07-20T14:06:42;-19000.00;;;22.71;39.85
28606;BME280;46498;49.968;7.754;2023-07-20T14:11:43;-18985.00;;;22.23;40.45
28606;BME280;46498;49.968;7.754;2023-07-20T14:16:47;-19000.00;;;22.69;39.81
28606;BME280;46498;49.968;7.754;2023-07-20T14:21:48;-18989.00;;;22.34;39.57
28606;BME280;46498;49.968;7.754;2023-07-20T14:26:49;-18998.00;;;22.64;38.69
28606;BME280;46498;49.968;7.754;2023-07-20T14:31:53;-19013.00;;;23.12;39.34
28606;BME280;46498;49.968;7.754;2023-07-20T14:36:54;-19025.00;;;23.49;38.49
28606;BME280;46498;49.968;7.754;2023-07-20T14:41:55;-19004.00;;;22.83;39.49
28606;BME280;46498;49.968;7.754;2023-07-20T14:46:56;-19002.00;;;22.76;39.84
28606;BME280;46498;49.968;7.754;2023-07-20T14:52:15;-19011.00;;;23.05;39.31
28606;BME280;46498;49.968;7.754;2023-07-20T14:57:17;-18994.00;;;22.50;40.10
28606;BME280;46498;49.968;7.754;2023-07-20T15:02:19;-18992.00;;;22.43;39.93
28606;BME280;46498;49.968;7.754;2023-07-20T15:07:20;-18997.00;;;22.61;40.21
28606;BME280;46498;49.968;7.754;2023-07-20T15:12:24;-19004.00;;;22.82;39.41
28606;BME280;46498;49.968;7.754;2023-07-20T15:17:25;-19005.00;;;22.84;39.48
28606;BME280;46498;49.968;7.754;2023-07-20T15:22:26;-19009.00;;;22.99;39.32
28606;BME280;46498;49.968;7.754;2023-07-20T15:27:28;-19013.00;;;23.10;38.43
28606;BME280;46498;49.968;7.754;2023-07-20T15:32:28;-19003.00;;;22.80;38.52
28606;BME280;46498;49.968;7.754;2023-07-20T15:37:30;-18999.00;;;22.65;39.29
28606;BME280;46498;49.968;7.754;2023-07-20T15:42:32;-18998.00;;;22.63;39.36
28606;BME280;46498;49.968;7.754;2023-07-20T15:47:36;-19011.00;;;23.03;38.65
28606;BME280;46498;49.968;7.754;2023-07-20T15:52:37;-18992.00;;;22.45;39.58
28606;BME280;46498;49.968;7.754;2023-07-20T15:57:37;-18996.00;;;22.56;39.39
28606;BME280;46498;49.968;7.754;2023-07-20T16:02:38;-19004.00;;;22.83;39.05
28606;BME280;46498;49.968;7.754;2023-07-20T16:07:41;-19015.00;;;23.16;38.09
28606;BME280;46498;49.968;7.754;2023-07-20T16:12:45;-19009.00;;;22.98;38.75
28606;BME280;46498;49.968;7.754;2023-07-20T16:17:46;-19003.00;;;22.77;38.68
28606;BME280;46498;49.968;7.754;2023-07-20T16:22:47;-18998.00;;;22.65;38.80
28606;BME280;46498;49.968;7.754;2023-07-20T16:27:47;-18993.00;;;22.47;39.23
28606;BME280;46498;49.968;7.754;2023-07-20T16:32:48;-19003.00;;;22.77;38.25
28606;BME280;46498;49.968;7.754;2023-07-20T16:37:55;-19014.00;;;23.13;37.78
28606;BME280;46498;49.968;7.754;2023-07-20T16:42:59;-19019.00;;;23.31;37.04
28606;BME280;46498;49.968;7.754;2023-07-20T16:48:03;-19018.00;;;23.26;37.36
28606;BME280;46498;49.968;7.754;2023-07-20T16:53:04;-19027.00;;;23.55;36.46
28606;BME280;46498;49.968;7.754;2023-07-20T16:58:05;-19004.00;;;22.83;37.64
28606;BME280;46498;49.968;7.754;2023-07-20T17:03:06;-18988.00;;;22.32;38.98
28606;BME280;46498;49.968;7.754;2023-07-20T17:08:07;-18989.00;;;22.35;39.00
28606;BME280;46498;49.968;7.754;2023-07-20T17:13:08;-18982.00;;;22.13;39.70
28606;BME280;46498;49.968;7.754;2023-07-20T17:18:11;-18984.00;;;22.19;39.33
28606;BME280;46498;49.968;7.754;2023-07-20T17:23:14;-18982.00;;;22.12;39.50
28606;BME280;46498;49.968;7.754;2023-07-20T17:28:15;-18978.00;;;21.99;40.23
28606;BME280;46498;49.968;7.754;2023-07-20T17:33:20;-18983.00;;;22.14;40.36
28606;BME280;46498;49.968;7.754;2023-07-20T17:38:21;-18982.00;;;22.13;40.28
28606;BME280;46498;49.968;7.754;2023-07-20T17:43:25;-18973.00;;;21.85;40.62
28606;BME280;46498;49.968;7.754;2023-07-20T17:48:26;-18967.00;;;21.66;41.35
28606;BME280;46498;49.968;7.754;2023-07-20T17:53:28;-18973.00;;;21.85;40.89
28606;BME280;46498;49.968;7.754;2023-07-20T17:58:30;-18969.00;;;21.71;41.24
28606;BME280;46498;49.968;7.754;2023-07-20T18:03:31;-18965.00;;;21.58;41.56
28606;BME280;46498;49.968;7.754;2023-07-20T18:08:32;-18959.00;;;21.40;41.85
28606;BME280;46498;49.968;7.754;2023-07-20T18:13:32;-18961.00;;;21.47;41.95
28606;BME280;46498;49.968;7.754;2023-07-20T18:18:33;-18955.00;;;21.28;42.28
28606;BME280;46498;49.968;7.754;2023-07-20T18:23:34;-18953.00;;;21.23;42.51
28606;BME280;46498;49.968;7.754;2023-07-20T18:28:35;-18951.00;;;21.16;43.12
28606;BME280;46498;49.968;7.754;2023-07-20T18:33:36;-18952.00;;;21.17;42.75
28606;BME280;46498;49.968;7.754;2023-07-20T18:38:37;-18952.00;;;21.18;42.88
28606;BME280;46498;49.968;7.754;2023-07-20T18:43:38;-18955.00;;;21.28;42.85
28606;BME280;46498;49.968;7.754;2023-07-20T18:48:39;-18945.00;;;20.96;43.18
28606;BME280;46498;49.968;7.754;2023-07-20T18:53:41;-18940.00;;;20.81;43.53
28606;BME280;46498;49.968;7.754;2023-07-20T18:58:42;-18934.00;;;20.60;44.04
28606;BME280;46498;49.968;7.754;2023-07-20T19:03:43;-18927.00;;;20.40;44.38
28606;BME280;46498;49.968;7.754;2023-07-20T19:08:44;-18929.00;;;20.44;44.34
28606;BME280;46498;49.968;7.754;2023-07-20T19:13:48;-18922.00;;;20.25;44.76
28606;BME280;46498;49.968;7.754;2023-07-20T19:18:48;-18915.00;;;20.01;45.15
28606;BME280;46498;49.968;7.754;2023-07-20T19:23:50;-18916.00;;;20.03;45.24
28606;BME280;46498;49.968;7.754;2023-07-20T19:28:51;-18910.00;;;19.86;45.43
28606;BME280;46498;49.968;7.754;2023-07-20T19:33:52;-18906.00;;;19.74;46.04
28606;BME280;46498;49.968;7.754;2023-07-20T19:38:52;-18902.00;;;19.61;46.46
28606;BME280;46498;49.968;7.754;2023-07-20T19:43:54;-18896.00;;;19.42;46.77
28606;BME280;46498;49.968;7.754;2023-07-20T19:48:54;-18892.00;;;19.30;47.45
28606;BME280;46498;49.968;7.754;2023-07-20T19:53:56;-18888.00;;;19.16;47.65
28606;BME280;46498;49.968;7.754;2023-07-20T19:59:01;-18890.00;;;19.23;47.52
28606;BME280;46498;49.968;7.754;2023-07-20T20:04:02;-18886.00;;;19.11;48.23
28606;BME280;46498;49.968;7.754;2023-07-20T20:09:06;-18883.00;;;19.00;48.64
28606;BME280;46498;49.968;7.754;2023-07-20T20:14:07;-18879.00;;;18.87;49.24
28606;BME280;46498;49.968;7.754;2023-07-20T20:19:08;-18879.00;;;18.87;49.86
28606;BME280;46498;49.968;7.754;2023-07-20T20:24:10;-18879.00;;;18.87;50.02
28606;BME280;46498;49.968;7.754;2023-07-20T20:29:11;-18877.00;;;18.82;50.71
28606;BME280;46498;49.968;7.754;2023-07-20T20:34:12;-18877.00;;;18.83;51.39
28606;BME280;46498;49.968;7.754;2023-07-20T20:39:12;-18878.00;;;18.85;52.94
28606;BME280;46498;49.968;7.754;2023-07-20T20:44:14;-18879.00;;;18.88;51.29
28606;BME280;46498;49.968;7.754;2023-07-20T20:49:18;-18876.00;;;18.80;51.79
28606;BME280;46498;49.968;7.754;2023-07-20T20:54:19;-18872.00;;;18.67;53.23
28606;BME280;46498;49.968;7.754;2023-07-20T20:59:20;-18871.00;;;18.62;52.98
28606;BME280;46498;49.968;7.754;2023-07-20T21:04:22;-18869.00;;;18.56;53.54
28606;BME280;46498;49.968;7.754;2023-07-20T21:09:24;-18863.00;;;18.38;54.67
28606;BME280;46498;49.968;7.754;2023-07-20T21:14:25;-18864.00;;;18.41;54.37
28606;BME280;46498;49.968;7.754;2023-07-20T21:19:26;-18862.00;;;18.36;55.15
28606;BME280;46498;49.968;7.754;2023-07-20T21:24:27;-18861.00;;;18.32;55.39
28606;BME280;46498;49.968;7.754;2023-07-20T21:29:28;-18859.00;;;18.26;55.65
28606;BME280;46498;49.968;7.754;2023-07-20T21:34:29;-18846.00;;;17.84;58.67
28606;BME280;46498;49.968;7.754;2023-07-20T21:39:31;-18836.00;;;17.54;60.34
28606;BME280;46498;49.968;7.754;2023-07-20T21:44:32;-18829.00;;;17.30;61.74
28606;BME280;46498;49.968;7.754;2023-07-20T21:49:33;-18833.00;;;17.42;61.44
28606;BME280;46498;49.968;7.754;2023-07-20T21:54:34;-18831.00;;;17.38;62.59
28606;BME280;46498;49.968;7.754;2023-07-20T21:59:34;-18834.00;;;17.46;62.43
28606;BME280;46498;49.968;7.754;2023-07-20T22:04:35;-18838.00;;;17.59;61.76
28606;BME280;46498;49.968;7.754;2023-07-20T22:09:36;-18837.00;;;17.57;62.23
28606;BME280;46498;49.968;7.754;2023-07-20T22:14:40;-18837.00;;;17.56;62.30
28606;BME280;46498;49.968;7.754;2023-07-20T22:19:42;-18839.00;;;17.61;62.49
28606;BME280;46498;49.968;7.754;2023-07-20T22:24:43;-18842.00;;;17.73;62.27
28606;BME280;46498;49.968;7.754;2023-07-20T22:29:45;-18842.00;;;17.73;61.54
28606;BME280;46498;49.968;7.754;2023-07-20T22:34:46;-18843.00;;;17.76;61.75
28606;BME280;46498;49.968;7.754;2023-07-20T22:39:47;-18842.00;;;17.72;61.77
28606;BME280;46498;49.968;7.754;2023-07-20T22:44:48;-18843.00;;;17.75;61.22
28606;BME280;46498;49.968;7.754;2023-07-20T22:49:49;-18841.00;;;17.67;62.36
28606;BME280;46498;49.968;7.754;2023-07-20T22:54:50;-18840.00;;;17.64;62.21
28606;BME280;46498;49.968;7.754;2023-07-20T22:59:51;-18839.00;;;17.63;62.83
28606;BME280;46498;49.968;7.754;2023-07-20T23:04:52;-18837.00;;;17.57;62.97
28606;BME280;46498;49.968;7.754;2023-07-20T23:09:54;-18837.00;;;17.55;63.22
28606;BME280;46498;49.968;7.754;2023-07-20T23:14:55;-18834.00;;;17.47;63.97
28606;BME280;46498;49.968;7.754;2023-07-20T23:19:57;-18832.00;;;17.40;64.24
28606;BME280;46498;49.968;7.754;2023-07-20T23:24:58;-18827.00;;;17.23;65.76
28606;BME280;46498;49.968;7.754;2023-07-20T23:30:00;-18824.00;;;17.15;66.29
28606;BME280;46498;49.968;7.754;2023-07-20T23:35:01;-18825.00;;;17.18;67.14
28606;BME280;46498;49.968;7.754;2023-07-20T23:40:03;-18826.00;;;17.23;67.35
28606;BME280;46498;49.968;7.754;2023-07-20T23:45:12;-18828.00;;;17.29;66.82
28606;BME280;46498;49.968;7.754;2023-07-20T23:50:14;-18823.00;;;17.13;66.95
28606;BME280;46498;49.968;7.754;2023-07-20T23:55:17;-18825.00;;;17.18;66.62
